createdAt,value
2022-08-19T00:01:32.328Z,4.50
2022-08-19T00:04:06.932Z,3.67
2022-08-19T00:06:36.356Z,3.80
2022-08-19T00:09:05.635Z,3.88
2022-08-19T00:11:33.085Z,4.00
2022-08-19T00:16:27.559Z,3.60
2022-08-19T00:26:19.767Z,4.03
2022-08-19T00:28:47.509Z,3.70
2022-08-19T00:31:14.424Z,3.95
2022-08-19T00:36:10.312Z,4.18
2022-08-19T00:41:09.744Z,4.30
2022-08-19T00:43:36.543Z,3.60
2022-08-19T00:53:50.003Z,4.25
2022-08-19T00:56:17.493Z,3.80
2022-08-19T01:03:40.271Z,4.10
2022-08-19T01:06:26.262Z,4.10
2022-08-19T01:08:53.303Z,4.43
2022-08-19T01:11:20.175Z,4.10
2022-08-19T01:13:49.106Z,4.10
2022-08-19T01:16:18.182Z,4.28
2022-08-19T01:23:48.958Z,3.88
2022-08-19T01:26:20.031Z,3.85
2022-08-19T01:28:48.706Z,3.97
2022-08-19T01:36:32.567Z,4.15
2022-08-19T01:39:00.427Z,4.07
2022-08-19T01:41:27.536Z,4.35
2022-08-19T01:44:13.731Z,3.97
2022-08-19T01:46:42.513Z,3.95
2022-08-19T01:49:09.837Z,3.78
2022-08-19T01:51:40.270Z,3.35
2022-08-19T01:54:08.922Z,3.50
2022-08-19T01:59:06.452Z,3.65
2022-08-19T02:01:33.517Z,3.30
2022-08-19T02:04:01.782Z,3.40
2022-08-19T02:06:29.453Z,3.83
2022-08-19T02:08:57.356Z,3.35
2022-08-19T02:14:00.460Z,3.28
2022-08-19T02:16:27.263Z,3.10
2022-08-19T02:18:54.092Z,3.50
2022-08-19T02:21:22.660Z,3.47
2022-08-19T02:23:50.402Z,3.63
2022-08-19T02:26:17.802Z,3.33
2022-08-19T02:28:44.641Z,3.80
2022-08-19T02:31:13.751Z,3.50
2022-08-19T02:33:40.641Z,3.40
2022-08-19T02:36:08.761Z,3.90
2022-08-19T02:38:36.313Z,3.42
2022-08-19T02:41:06.402Z,3.85
2022-08-19T02:43:36.574Z,3.55
2022-08-19T02:46:13.690Z,3.35
2022-08-19T02:48:40.951Z,3.80
2022-08-19T02:51:07.709Z,3.22
2022-08-19T02:53:34.506Z,3.70
2022-08-19T02:56:01.355Z,3.42
2022-08-19T02:58:28.337Z,3.70
2022-08-19T03:00:56.821Z,3.67
2022-08-19T03:03:24.403Z,3.83
2022-08-19T03:05:56.907Z,3.80
2022-08-19T03:08:25.245Z,4.00
2022-08-19T03:13:21.112Z,4.28
2022-08-19T03:15:48.676Z,3.92
2022-08-19T03:18:15.701Z,3.78
2022-08-19T03:23:17.582Z,3.80
2022-08-19T03:25:46.916Z,4.03
2022-08-19T03:28:25.153Z,3.83
2022-08-19T03:34:09.345Z,3.70
2022-08-19T03:36:36.977Z,3.90
2022-08-19T03:39:04.005Z,4.07
2022-08-19T03:41:35.749Z,4.18
2022-08-19T03:44:17.973Z,3.97
2022-08-19T03:46:46.492Z,4.15
2022-08-19T03:49:14.144Z,3.90
2022-08-19T03:51:42.713Z,4.10
2022-08-19T03:54:12.561Z,4.38
2022-08-19T03:56:40.171Z,4.00
2022-08-19T03:59:11.698Z,4.45
2022-08-19T04:04:06.506Z,4.07
2022-08-19T04:06:36.278Z,4.07
2022-08-19T04:09:09.313Z,4.40
2022-08-19T04:11:44.738Z,4.20
2022-08-19T04:14:14.968Z,4.57
2022-08-19T04:16:41.924Z,4.38
2022-08-19T04:19:08.841Z,4.28
2022-08-19T04:21:35.785Z,4.40
2022-08-19T04:24:03.928Z,5.18
2022-08-19T04:26:34.059Z,5.38
2022-08-19T04:29:12.169Z,5.15
2022-08-19T04:31:39.401Z,5.30
2022-08-19T04:34:09.023Z,5.10
2022-08-19T04:36:37.651Z,5.28
2022-08-19T04:39:10.153Z,5.25
2022-08-19T04:44:23.196Z,4.43
2022-08-19T04:46:52.104Z,4.68
2022-08-19T04:49:23.117Z,4.63
2022-08-19T04:51:51.446Z,4.50
2022-08-19T04:54:37.716Z,4.32
2022-08-19T04:59:39.566Z,3.95
2022-08-19T05:02:08.646Z,3.75
2022-08-19T05:04:39.032Z,3.83
2022-08-19T05:07:06.612Z,3.72
2022-08-19T05:09:58.089Z,3.95
2022-08-19T05:12:20.341Z,6.50
2022-08-19T05:14:48.851Z,7.30
2022-08-19T05:17:37.457Z,6.70
2022-08-19T05:20:23.878Z,5.28
2022-08-19T05:22:50.757Z,4.78
2022-08-19T05:25:20.423Z,4.72
2022-08-19T05:27:47.784Z,5.15
2022-08-19T05:30:14.735Z,9.35
2022-08-19T05:32:42.923Z,9.13
2022-08-19T05:35:10.504Z,5.95
2022-08-19T05:37:37.473Z,4.97
2022-08-19T05:40:05.356Z,4.43
2022-08-19T05:42:32.568Z,3.75
2022-08-19T05:44:59.567Z,3.80
2022-08-19T05:47:26.545Z,4.22
2022-08-19T05:52:25.849Z,3.58
2022-08-19T05:54:55.993Z,3.88
2022-08-19T05:57:23.240Z,3.45
2022-08-19T05:59:52.746Z,3.22
2022-08-19T06:02:20.639Z,3.55
2022-08-19T06:04:47.747Z,3.40
2022-08-19T06:09:43.718Z,4.03
2022-08-19T06:12:29.834Z,3.40
2022-08-19T06:15:01.035Z,7.63
2022-08-19T06:17:31.317Z,10.80
2022-08-19T06:19:59.456Z,6.32
2022-08-19T06:22:26.561Z,5.20
2022-08-19T06:24:54.763Z,4.65
2022-08-19T06:27:21.917Z,4.32
2022-08-19T06:29:48.833Z,4.07
2022-08-19T06:32:17.374Z,3.30
2022-08-19T06:34:44.291Z,3.53
2022-08-19T06:37:12.693Z,3.88
2022-08-19T06:39:41.962Z,3.83
2022-08-19T06:42:12.324Z,3.65
2022-08-19T06:44:42.790Z,3.85
2022-08-19T06:47:14.870Z,3.40
2022-08-19T06:49:49.864Z,3.80
2022-08-19T06:52:17.005Z,3.42
2022-08-19T06:54:55.814Z,4.00
2022-08-19T06:57:25.147Z,3.90
2022-08-19T06:59:52.292Z,3.15
2022-08-19T07:02:19.860Z,3.42
2022-08-19T07:04:47.001Z,3.28
2022-08-19T07:07:19.917Z,5.65
2022-08-19T07:09:57.139Z,5.32
2022-08-19T07:12:35.653Z,5.68
2022-08-19T07:15:04.483Z,4.93
2022-08-19T07:17:31.829Z,3.97
2022-08-19T07:20:06.781Z,3.83
2022-08-19T07:22:36.781Z,3.20
2022-08-19T07:25:04.996Z,3.25
2022-08-19T07:27:33.669Z,2.95
2022-08-19T07:30:00.999Z,2.50
2022-08-19T07:32:28.083Z,2.33
2022-08-19T07:34:56.666Z,2.42
2022-08-19T07:37:31.973Z,2.58
2022-08-19T07:40:00.020Z,2.22
2022-08-19T07:44:54.574Z,2.58
2022-08-19T07:47:49.810Z,2.25
2022-08-19T07:50:12.382Z,2.05
2022-08-19T07:52:45.295Z,2.25
2022-08-19T07:55:41.182Z,1.83
2022-08-19T07:58:03.269Z,2.15
2022-08-19T08:00:31.802Z,1.60
2022-08-19T08:02:58.597Z,2.08
2022-08-19T08:05:44.517Z,2.30
2022-08-19T08:08:31.308Z,1.88
2022-08-19T08:10:59.672Z,1.88
2022-08-19T08:13:27.918Z,2.35
2022-08-19T08:15:56.446Z,2.00
2022-08-19T08:18:27.658Z,1.87
2022-08-19T08:20:58.800Z,1.67
2022-08-19T08:23:27.057Z,1.88
2022-08-19T08:25:56.465Z,1.80
2022-08-19T08:28:25.309Z,1.67
2022-08-19T08:30:53.310Z,1.98
2022-08-19T08:33:33.399Z,2.05
2022-08-19T08:36:11.912Z,1.88
2022-08-19T08:38:40.249Z,1.80
2022-08-19T08:41:28.769Z,1.80
2022-08-19T08:43:56.397Z,1.90
2022-08-19T08:46:30.660Z,1.60
2022-08-19T08:49:12.934Z,1.70
2022-08-19T08:51:47.924Z,1.70
2022-08-19T08:54:19.661Z,2.47
2022-08-19T08:56:47.210Z,4.30
2022-08-19T08:59:25.597Z,4.35
2022-08-19T09:01:52.581Z,3.60
2022-08-19T09:04:19.568Z,2.85
2022-08-19T09:06:52.696Z,2.50
2022-08-19T09:09:33.753Z,2.10
2022-08-19T09:12:39.266Z,2.35
2022-08-19T09:15:12.201Z,2.55
2022-08-19T09:17:39.662Z,2.42
2022-08-19T09:20:20.509Z,1.90
2022-08-19T09:22:47.637Z,2.15
2022-08-19T09:25:17.734Z,2.20
2022-08-19T09:27:54.434Z,1.98
2022-08-19T09:30:27.899Z,2.40
2022-08-19T09:32:58.495Z,1.75
2022-08-19T09:35:28.535Z,1.45
2022-08-19T09:37:57.631Z,2.13
2022-08-19T09:40:30.014Z,1.80
2022-08-19T09:42:58.789Z,2.30
2022-08-19T09:45:25.572Z,2.15
2022-08-19T09:47:54.582Z,1.98
2022-08-19T09:50:23.667Z,2.38
2022-08-19T09:52:55.719Z,2.67
2022-08-19T09:55:31.145Z,2.83
2022-08-19T09:58:00.948Z,3.30
2022-08-19T10:00:27.884Z,2.93
2022-08-19T10:02:54.781Z,2.97
2022-08-19T10:05:42.295Z,3.00
2022-08-19T10:08:13.578Z,3.65
2022-08-19T10:10:46.365Z,3.28
2022-08-19T10:13:15.928Z,2.78
2022-08-19T10:15:45.105Z,2.72
2022-08-19T10:18:18.716Z,2.95
2022-08-19T10:20:51.612Z,2.60
2022-08-19T10:23:21.269Z,2.00
2022-08-19T10:25:49.050Z,2.55
2022-08-19T10:28:16.121Z,2.00
2022-08-19T10:30:46.331Z,2.13
2022-08-19T10:33:14.963Z,1.95
2022-08-19T10:35:42.796Z,1.88
2022-08-19T10:38:29.965Z,2.15
2022-08-19T10:40:59.567Z,2.33
2022-08-19T10:43:26.426Z,2.80
2022-08-19T10:45:59.428Z,3.42
2022-08-19T10:48:26.429Z,2.85
2022-08-19T10:51:22.818Z,2.80
2022-08-19T10:53:50.897Z,2.45
2022-08-19T10:56:37.386Z,2.88
2022-08-19T10:59:05.321Z,2.63
2022-08-19T11:01:34.163Z,2.33
2022-08-19T11:04:02.650Z,2.35
2022-08-19T11:06:31.092Z,2.40
2022-08-19T11:08:57.848Z,1.92
2022-08-19T11:11:24.653Z,2.25
2022-08-19T11:13:51.970Z,2.38
2022-08-19T11:16:24.075Z,2.00
2022-08-19T11:18:53.372Z,2.00
2022-08-19T11:21:23.266Z,1.80
2022-08-19T11:23:51.922Z,1.27
2022-08-19T11:26:20.050Z,1.48
2022-08-19T11:28:47.460Z,1.70
2022-08-19T11:31:18.771Z,1.73
2022-08-19T11:33:47.633Z,1.20
2022-08-19T11:36:15.142Z,1.40
2022-08-19T11:38:42.077Z,1.38
2022-08-19T11:43:37.767Z,1.30
2022-08-19T11:46:08.197Z,1.52
2022-08-19T11:48:35.549Z,1.20
2022-08-19T11:51:07.169Z,1.30
2022-08-19T11:53:35.347Z,1.10
2022-08-19T11:56:02.944Z,1.00
2022-08-19T11:58:30.285Z,1.02
2022-08-19T12:00:57.575Z,1.00
2022-08-19T12:03:25.221Z,0.80
2022-08-19T12:05:52.455Z,1.35
2022-08-19T12:08:19.626Z,1.10
2022-08-19T12:10:48.967Z,1.52
2022-08-19T12:13:19.561Z,1.20
2022-08-19T12:15:47.967Z,1.00
2022-08-19T12:18:15.398Z,0.82
2022-08-19T12:20:43.976Z,1.27
2022-08-19T12:23:11.572Z,1.00
2022-08-19T12:25:49.395Z,1.05
2022-08-19T12:28:16.761Z,1.00
2022-08-19T12:30:44.081Z,1.00
2022-08-19T12:33:10.912Z,0.90
2022-08-19T12:35:45.226Z,0.90
2022-08-19T12:38:12.704Z,0.82
2022-08-19T12:40:41.098Z,0.93
2022-08-19T12:43:08.735Z,1.10
2022-08-19T12:45:35.895Z,0.98
2022-08-19T12:48:31.308Z,0.88
2022-08-19T12:50:52.488Z,0.80
2022-08-19T12:53:19.266Z,0.70
2022-08-19T12:58:13.536Z,0.90
2022-08-19T13:00:40.805Z,0.80
2022-08-19T13:03:07.648Z,0.77
2022-08-19T13:05:35.201Z,0.90
2022-08-19T13:08:02.539Z,0.75
2022-08-19T13:10:36.387Z,0.80
2022-08-19T13:13:07.566Z,0.80
2022-08-19T13:15:35.866Z,0.60
2022-08-19T13:18:02.770Z,0.80
2022-08-19T13:20:29.944Z,0.80
2022-08-19T13:22:58.140Z,0.60
2022-08-19T13:25:26.362Z,0.80
2022-08-19T13:27:53.909Z,1.27
2022-08-19T13:30:40.244Z,0.80
2022-08-19T13:35:48.406Z,0.70
2022-08-19T13:40:51.239Z,0.98
2022-08-19T13:43:23.104Z,1.10
2022-08-19T13:45:54.677Z,1.67
2022-08-19T13:48:21.689Z,1.58
2022-08-19T13:50:49.058Z,1.38
2022-08-19T13:53:16.583Z,1.20
2022-08-19T13:55:44.046Z,1.10
2022-08-19T13:58:11.904Z,1.05
2022-08-19T14:00:42.862Z,0.68
2022-08-19T14:03:09.799Z,0.68
2022-08-19T14:05:36.796Z,0.80
2022-08-19T14:08:04.075Z,0.85
2022-08-19T14:10:32.434Z,0.60
2022-08-19T14:13:01.416Z,0.60
2022-08-19T14:15:28.983Z,0.75
2022-08-19T14:17:56.147Z,0.95
2022-08-19T14:20:25.917Z,0.77
2022-08-19T14:22:54.532Z,0.82
2022-08-19T14:25:25.047Z,0.75
2022-08-19T14:27:52.662Z,0.60
2022-08-19T14:30:31.351Z,0.57
2022-08-19T14:33:00.180Z,0.60
2022-08-19T14:35:28.717Z,0.40
2022-08-19T14:37:57.005Z,0.80
2022-08-19T14:40:26.896Z,0.50
2022-08-19T14:43:05.395Z,0.30
2022-08-19T14:48:08.747Z,0.45
2022-08-19T14:50:46.144Z,0.40
2022-08-19T14:53:13.346Z,0.50
2022-08-19T14:55:47.131Z,0.40
2022-08-19T14:58:29.673Z,0.50
2022-08-19T15:01:00.773Z,0.80
2022-08-19T15:03:28.565Z,0.60
2022-08-19T15:05:57.427Z,0.55
2022-08-19T15:08:25.934Z,0.50
2022-08-19T15:10:53.240Z,0.60
2022-08-19T15:13:20.065Z,0.70
2022-08-19T15:15:48.280Z,0.60
2022-08-19T15:18:15.563Z,0.75
2022-08-19T15:20:44.421Z,0.60
2022-08-19T15:23:17.477Z,0.80
2022-08-19T15:25:44.559Z,0.80
2022-08-19T15:28:12.074Z,0.80
2022-08-19T15:30:40.307Z,1.00
2022-08-19T15:33:07.761Z,0.70
2022-08-19T15:38:02.082Z,0.70
2022-08-19T15:40:29.038Z,0.80
2022-08-19T15:42:57.560Z,0.75
2022-08-19T15:45:32.614Z,0.80
2022-08-19T15:48:00.967Z,0.80
2022-08-19T15:50:28.500Z,0.70
2022-08-19T15:52:58.022Z,0.70
2022-08-19T15:58:29.369Z,0.73
2022-08-19T16:04:15.001Z,0.98
2022-08-19T16:06:54.245Z,0.70
2022-08-19T16:09:27.224Z,0.73
2022-08-19T16:14:35.309Z,0.70
2022-08-19T16:17:02.750Z,1.10
2022-08-19T16:19:29.603Z,1.20
2022-08-19T16:21:57.172Z,1.33
2022-08-19T16:24:26.661Z,1.33
2022-08-19T16:26:53.734Z,1.20
2022-08-19T16:29:34.295Z,1.15
2022-08-19T16:32:10.113Z,1.00
2022-08-19T16:34:38.897Z,1.10
2022-08-19T16:37:06.001Z,0.90
2022-08-19T16:39:32.955Z,1.10
2022-08-19T16:41:59.975Z,1.10
2022-08-19T16:44:27.392Z,0.85
2022-08-19T16:46:58.665Z,0.90
2022-08-19T16:49:53.027Z,1.10
2022-08-19T16:52:17.137Z,0.90
2022-08-19T16:54:44.059Z,0.60
2022-08-19T16:59:43.818Z,0.70
2022-08-19T17:02:17.117Z,0.80
2022-08-19T17:07:11.013Z,0.90
2022-08-19T17:09:38.125Z,0.80
2022-08-19T17:12:05.737Z,0.80
2022-08-19T17:14:32.610Z,0.70
2022-08-19T17:16:59.423Z,0.80
2022-08-19T17:19:27.332Z,0.63
2022-08-19T17:21:54.257Z,1.05
2022-08-19T17:24:21.142Z,1.10
2022-08-19T17:26:47.974Z,1.10
2022-08-19T17:29:14.881Z,1.13
2022-08-19T17:31:41.747Z,1.05
2022-08-19T17:39:04.853Z,0.80
2022-08-19T17:41:34.170Z,0.63
2022-08-19T17:44:03.769Z,0.82
2022-08-19T17:48:58.350Z,0.60
2022-08-19T17:54:18.672Z,0.70
2022-08-19T17:56:46.316Z,0.60
2022-08-19T18:01:52.643Z,0.57
2022-08-19T18:04:24.863Z,0.80
2022-08-19T18:06:54.368Z,2.03
2022-08-19T18:09:27.153Z,3.63
2022-08-19T18:11:56.792Z,2.95
2022-08-19T18:14:32.257Z,1.80
2022-08-19T18:17:09.196Z,2.05
2022-08-19T18:22:09.416Z,1.20
2022-08-19T18:24:39.366Z,1.02
2022-08-19T18:27:07.127Z,0.93
2022-08-19T18:29:35.598Z,0.95
2022-08-19T18:32:02.443Z,1.20
2022-08-19T18:34:29.484Z,0.93
2022-08-19T18:36:56.329Z,0.75
2022-08-19T18:39:44.121Z,0.90
2022-08-19T18:45:23.682Z,0.82
2022-08-19T18:48:27.132Z,0.70
2022-08-19T18:50:58.203Z,0.82
2022-08-19T18:53:25.977Z,1.05
2022-08-19T18:55:54.145Z,1.00
2022-08-19T18:58:26.460Z,1.00
2022-08-19T19:00:56.880Z,1.00
2022-08-19T19:03:25.132Z,0.90
2022-08-19T19:05:52.785Z,0.95
2022-08-19T19:08:19.653Z,0.80
2022-08-19T19:10:47.661Z,0.80
2022-08-19T19:13:17.792Z,0.60
2022-08-19T19:15:44.618Z,0.80
2022-08-19T19:18:15.997Z,0.60
2022-08-19T19:20:42.817Z,0.60
2022-08-19T19:23:09.684Z,0.60
2022-08-19T19:25:50.014Z,0.60
2022-08-19T19:28:23.899Z,0.60
2022-08-19T19:30:52.354Z,0.60
2022-08-19T19:33:20.127Z,0.70
2022-08-19T19:35:47.312Z,1.20
2022-08-19T19:38:14.513Z,0.77
2022-08-19T19:43:08.911Z,0.70
2022-08-19T19:45:37.849Z,0.65
2022-08-19T19:48:05.420Z,0.65
2022-08-19T19:50:32.458Z,0.70
2022-08-19T19:52:59.252Z,0.60
2022-08-19T19:55:27.316Z,0.75
2022-08-19T19:57:54.689Z,0.70
2022-08-19T20:00:21.885Z,0.60
2022-08-19T20:02:51.074Z,0.68
2022-08-19T20:05:21.227Z,0.52
2022-08-19T20:08:08.017Z,0.70
2022-08-19T20:10:35.036Z,0.52
2022-08-19T20:13:02.751Z,0.57
2022-08-19T20:15:31.465Z,0.77
2022-08-19T20:17:59.804Z,0.70
2022-08-19T20:20:26.842Z,0.70
2022-08-19T20:22:53.994Z,0.57
2022-08-19T20:25:22.076Z,0.60
2022-08-19T20:27:49.375Z,0.50
2022-08-19T20:30:19.584Z,0.57
2022-08-19T20:32:48.001Z,0.60
2022-08-19T20:35:18.916Z,0.90
2022-08-19T20:37:45.732Z,0.80
2022-08-19T20:42:41.744Z,0.68
2022-08-19T20:47:49.016Z,0.68
2022-08-19T20:50:17.280Z,0.45
2022-08-19T20:52:44.881Z,0.50
2022-08-19T20:55:21.941Z,0.60
2022-08-19T21:00:16.153Z,0.50
2022-08-19T21:02:42.956Z,0.40
2022-08-19T21:05:10.083Z,0.65
2022-08-19T21:07:39.199Z,0.65
2022-08-19T21:10:07.479Z,0.40
2022-08-19T21:12:34.279Z,0.50
2022-08-19T21:15:01.126Z,0.75
2022-08-19T21:17:27.939Z,0.57
2022-08-19T21:19:54.700Z,0.60
2022-08-19T21:22:21.470Z,0.40
2022-08-19T21:24:48.551Z,0.52
2022-08-19T21:27:15.337Z,0.50
2022-08-19T21:29:42.254Z,0.63
2022-08-19T21:32:12.525Z,0.45
2022-08-19T21:34:43.816Z,0.60
2022-08-19T21:37:24.948Z,0.43
2022-08-19T21:39:56.238Z,0.50
2022-08-19T21:42:24.060Z,0.40
2022-08-19T21:47:18.639Z,1.17
2022-08-19T21:49:46.028Z,1.73
2022-08-19T21:52:13.376Z,1.20
2022-08-19T21:54:40.300Z,1.10
2022-08-19T21:57:10.431Z,1.00
2022-08-19T21:59:43.645Z,0.98
2022-08-19T22:02:20.126Z,0.90
2022-08-19T22:07:16.764Z,0.73
2022-08-19T22:09:48.180Z,0.98
2022-08-19T22:12:27.905Z,0.70
2022-08-19T22:14:55.624Z,1.20
2022-08-19T22:17:23.341Z,1.20
2022-08-19T22:19:52.475Z,0.70
2022-08-19T22:22:25.404Z,0.75
2022-08-19T22:24:53.395Z,1.10
2022-08-19T22:27:20.549Z,0.80
2022-08-19T22:32:26.548Z,0.80
2022-08-19T22:34:56.657Z,0.80
2022-08-19T22:37:23.497Z,0.85
2022-08-19T22:39:50.416Z,1.35
2022-08-19T22:42:21.967Z,0.60
2022-08-19T22:44:49.214Z,0.70
2022-08-19T22:47:16.606Z,0.60
2022-08-19T22:49:44.472Z,0.90
2022-08-19T22:52:18.159Z,0.57
2022-08-19T22:54:48.639Z,0.60
2022-08-19T22:57:16.245Z,0.70
2022-08-19T22:59:43.077Z,0.90
2022-08-19T23:02:10.157Z,0.88
2022-08-19T23:04:37.078Z,0.68
2022-08-19T23:07:05.409Z,0.50
2022-08-19T23:09:32.270Z,0.70
2022-08-19T23:12:00.585Z,0.70
2022-08-19T23:16:58.859Z,0.98
2022-08-19T23:19:26.206Z,0.80
2022-08-19T23:21:52.990Z,0.90
2022-08-19T23:24:20.033Z,0.60
2022-08-19T23:27:05.568Z,0.63
2022-08-19T23:29:51.255Z,0.80
2022-08-19T23:32:19.442Z,0.75
2022-08-19T23:34:46.423Z,0.90
2022-08-19T23:37:13.323Z,0.60
2022-08-19T23:39:40.808Z,0.65
2022-08-19T23:42:13.588Z,0.80
2022-08-19T23:44:51.897Z,0.60
2022-08-19T23:47:20.251Z,0.63
2022-08-19T23:49:48.565Z,0.85
2022-08-19T23:52:15.460Z,0.60
2022-08-19T23:54:43.509Z,0.90
2022-08-19T23:57:13.799Z,0.87
2022-08-19T23:59:42.594Z,0.73
